Portada
METAR-TAF:

METAR-TAF

Aeroports :

Katherine, Austràlia

latitud: 14-26S, longitud: 132-16E, altitud: 108 m

Observació

L'informe es va fer fa 38 minuts, a les 17:00 UTC
Vent 4 kt del Sud-Est
Temperatura 17°C
Humitat 88%
Pressió 1011 hPa
Visibilitat 10 km o més

METAR: YPTN 131700Z AUTO 14004KT 9999 // NCD 17/15 Q1011

Hora: 03:08 (17:38 UTC)

Pronòstic

L'informe es va fer fa 6 hores i 36 minuts, a les 11:02 UTC
Pronòstic vàlid del 13 a les 12 UTC al 14 a les 12 UTC
Vent 6 kt del Sud-Est
Visibilitat 10 km o més
sense núvols per sota de 1500 mi sense presència de cumulonimbus.

TAF: YPTN 131102Z 1312/1412 14006KT CAVOK

Observacions i pronòstics meteorològics de més de 4000 aeroports (METAR i TAF).

Les estacions disponibles són els punts grocs i vermells al mapa.

Posi el ratolí al punt desitjat per veure el nom de l'estació.

Feu clic per veure les observacions i els pronòstics meteorològics.

Per canviar el mapa: feu clic els botons verds amb una creu de color negre per apropar; al botó verd amb un guió per allunyar la imatge; o en les fletxes verdes per a mapes adjacents.


METAR-TAF: